createdAt,value
2018-07-04T00:00:51.667Z,6.33
2018-07-04T00:03:30.865Z,5.90
2018-07-04T00:06:10.060Z,5.43
2018-07-04T00:08:49.344Z,5.50
2018-07-04T00:11:28.480Z,7.37
2018-07-04T00:14:07.929Z,6.70
2018-07-04T00:16:47.068Z,10.43
2018-07-04T00:19:26.457Z,6.77
2018-07-04T00:22:05.707Z,8.60
2018-07-04T00:24:44.836Z,8.97
2018-07-04T00:27:24.045Z,9.23
2018-07-04T00:30:03.448Z,7.10
2018-07-04T00:32:42.685Z,8.17
2018-07-04T00:35:22.027Z,6.37
2018-07-04T00:38:01.040Z,5.70
2018-07-04T00:40:40.187Z,5.30
2018-07-04T00:43:19.364Z,5.43
2018-07-04T00:45:58.491Z,5.07
2018-07-04T00:48:37.690Z,5.20
2018-07-04T00:51:16.848Z,5.23
2018-07-04T00:53:56.012Z,4.77
2018-07-04T00:56:35.344Z,5.13
2018-07-04T00:59:14.512Z,4.90
2018-07-04T01:01:53.777Z,4.93
2018-07-04T01:04:33.025Z,5.30
2018-07-04T01:07:12.373Z,4.60
2018-07-04T01:09:51.667Z,4.60
2018-07-04T01:12:30.884Z,5.60
2018-07-04T01:15:09.980Z,4.83
2018-07-04T01:17:49.212Z,5.13
2018-07-04T01:20:32.931Z,6.03
2018-07-04T01:23:12.240Z,5.53
2018-07-04T01:25:51.539Z,4.80
2018-07-04T01:28:36.305Z,5.47
2018-07-04T01:31:15.580Z,6.50
2018-07-04T01:33:54.961Z,5.13
2018-07-04T01:36:34.128Z,6.40
2018-07-04T01:39:13.245Z,5.30
2018-07-04T01:41:52.383Z,5.33
2018-07-04T01:44:31.660Z,6.20
2018-07-04T01:47:10.724Z,5.53
2018-07-04T01:49:50.033Z,5.30
2018-07-04T01:52:29.112Z,5.07
2018-07-04T01:55:08.408Z,5.57
2018-07-04T01:57:47.593Z,5.60
2018-07-04T02:00:26.802Z,4.40
2018-07-04T02:03:06.108Z,5.00
2018-07-04T02:05:45.273Z,5.70
2018-07-04T02:08:24.385Z,5.20
2018-07-04T02:11:03.665Z,5.53
2018-07-04T02:13:42.932Z,5.60
2018-07-04T02:16:22.065Z,4.40
2018-07-04T02:19:01.228Z,5.97
2018-07-04T02:21:40.652Z,5.00
2018-07-04T02:24:20.021Z,5.60
2018-07-04T02:26:59.262Z,4.73
2018-07-04T02:29:38.468Z,5.27
2018-07-04T02:32:17.860Z,5.10
2018-07-04T02:34:59.242Z,5.80
2018-07-04T02:37:39.157Z,5.23
2018-07-04T02:40:18.324Z,4.83
2018-07-04T02:42:57.966Z,5.30
2018-07-04T02:45:37.472Z,5.37
2018-07-04T02:48:16.858Z,6.13
2018-07-04T02:50:56.503Z,5.23
2018-07-04T02:53:35.917Z,4.37
2018-07-04T02:56:15.129Z,4.70
2018-07-04T02:58:54.456Z,5.23
2018-07-04T03:01:33.923Z,4.60
2018-07-04T03:04:13.292Z,4.73
2018-07-04T03:06:52.589Z,5.40
2018-07-04T03:09:33.118Z,5.10
2018-07-04T03:12:12.490Z,5.20
2018-07-04T03:14:51.733Z,6.33
2018-07-04T03:17:30.824Z,6.10
2018-07-04T03:20:10.059Z,5.60
2018-07-04T03:22:49.320Z,5.33
2018-07-04T03:25:28.814Z,4.90
2018-07-04T03:28:08.105Z,5.47
2018-07-04T03:30:47.459Z,4.90
2018-07-04T03:33:26.701Z,4.87
2018-07-04T03:36:06.055Z,4.67
2018-07-04T03:38:45.160Z,5.03
2018-07-04T03:41:24.284Z,4.50
2018-07-04T03:44:03.384Z,5.37
2018-07-04T03:46:42.613Z,4.97
2018-07-04T03:49:21.780Z,4.57
2018-07-04T03:52:01.006Z,4.77
2018-07-04T03:54:40.385Z,4.70
2018-07-04T03:57:19.688Z,4.77
2018-07-04T03:59:59.011Z,4.90
2018-07-04T04:02:38.224Z,5.40
2018-07-04T04:05:17.468Z,5.03
2018-07-04T04:07:56.621Z,5.40
2018-07-04T04:10:35.924Z,4.80
2018-07-04T04:13:15.333Z,5.30
2018-07-04T04:15:54.476Z,5.07
2018-07-04T04:18:33.800Z,5.30
2018-07-04T04:21:13.025Z,4.30
2018-07-04T04:23:52.372Z,5.10
2018-07-04T04:26:31.744Z,5.30
2018-07-04T04:29:11.078Z,4.80
2018-07-04T04:31:50.204Z,4.83
2018-07-04T04:34:29.476Z,5.00
2018-07-04T04:37:08.689Z,4.53
2018-07-04T04:39:47.997Z,5.30
2018-07-04T04:42:27.245Z,4.43
2018-07-04T04:45:06.607Z,4.50
2018-07-04T04:47:45.799Z,4.97
2018-07-04T04:50:25.149Z,4.43
2018-07-04T04:53:04.305Z,4.33
2018-07-04T04:55:44.279Z,5.27
2018-07-04T04:58:23.639Z,3.93
2018-07-04T05:01:02.989Z,5.33
2018-07-04T05:03:42.182Z,4.70
2018-07-04T05:06:21.678Z,4.60
2018-07-04T05:09:00.985Z,4.70
2018-07-04T05:11:40.277Z,4.33
2018-07-04T05:14:19.529Z,4.70
2018-07-04T05:16:58.889Z,4.20
2018-07-04T05:19:38.134Z,4.50
2018-07-04T05:22:17.250Z,4.00
2018-07-04T05:24:56.489Z,3.97
2018-07-04T05:27:35.877Z,4.50
2018-07-04T05:30:15.069Z,4.60
2018-07-04T05:32:54.248Z,4.20
2018-07-04T05:35:33.609Z,4.20
2018-07-04T05:38:12.945Z,3.60
2018-07-04T05:40:52.251Z,4.00
2018-07-04T05:43:31.399Z,4.10
2018-07-04T05:46:10.832Z,3.50
2018-07-04T05:48:50.109Z,3.70
2018-07-04T05:51:29.277Z,4.33
2018-07-04T05:54:08.582Z,3.73
2018-07-04T05:56:48.185Z,4.60
2018-07-04T05:59:27.321Z,4.07
2018-07-04T06:02:06.629Z,3.40
2018-07-04T06:04:45.833Z,3.20
2018-07-04T06:07:25.346Z,3.63
2018-07-04T06:10:04.769Z,4.50
2018-07-04T06:12:43.852Z,3.33
2018-07-04T06:15:23.281Z,3.27
2018-07-04T06:18:02.528Z,3.70
2018-07-04T06:20:41.837Z,3.73
2018-07-04T06:23:15.251Z,3.67
2018-07-04T06:25:54.641Z,3.47
2018-07-04T06:28:33.928Z,3.30
2018-07-04T06:31:13.053Z,3.90
2018-07-04T06:33:52.288Z,3.40
2018-07-04T06:36:31.634Z,3.70
2018-07-04T06:38:58.529Z,3.37
2018-07-04T06:41:25.340Z,3.57
2018-07-04T06:43:52.232Z,4.00
2018-07-04T06:46:19.043Z,3.60
2018-07-04T06:48:45.890Z,3.90
2018-07-04T06:51:12.704Z,3.43
2018-07-04T06:53:39.591Z,3.27
2018-07-04T06:56:06.442Z,3.63
2018-07-04T06:58:34.446Z,3.40
2018-07-04T07:01:01.311Z,3.47
2018-07-04T07:03:40.547Z,3.27
2018-07-04T07:06:19.909Z,3.50
2018-07-04T07:08:59.201Z,3.13
2018-07-04T07:11:38.469Z,4.10
2018-07-04T07:14:17.739Z,3.23
2018-07-04T07:16:57.129Z,4.17
2018-07-04T07:19:36.371Z,3.33
2018-07-04T07:22:15.653Z,3.53
2018-07-04T07:24:54.850Z,3.73
2018-07-04T07:27:34.214Z,3.80
2018-07-04T07:30:13.525Z,3.50
2018-07-04T07:32:52.953Z,3.50
2018-07-04T07:35:32.076Z,3.70
2018-07-04T07:38:11.352Z,3.83
2018-07-04T07:40:50.519Z,2.80
2018-07-04T07:43:29.890Z,3.40
2018-07-04T07:46:09.980Z,4.10
2018-07-04T07:48:49.411Z,3.67
2018-07-04T07:51:29.226Z,4.10
2018-07-04T07:54:08.508Z,3.20
2018-07-04T07:56:47.697Z,4.20
2018-07-04T07:59:26.893Z,3.87
2018-07-04T08:02:06.184Z,4.00
2018-07-04T08:04:45.500Z,3.80
2018-07-04T08:07:24.853Z,3.40
2018-07-04T08:10:03.972Z,3.00
2018-07-04T08:12:43.126Z,3.50
2018-07-04T08:15:22.561Z,3.63
2018-07-04T08:18:02.320Z,3.50
2018-07-04T08:20:41.541Z,3.10
2018-07-04T08:23:20.761Z,3.90
2018-07-04T08:25:59.949Z,3.53
2018-07-04T08:28:39.228Z,3.30
2018-07-04T08:31:18.439Z,3.30
2018-07-04T08:33:57.763Z,3.07
2018-07-04T08:36:37.160Z,3.50
2018-07-04T08:39:16.404Z,3.43
2018-07-04T08:41:55.574Z,3.33
2018-07-04T08:44:34.782Z,3.00
2018-07-04T08:47:14.050Z,3.03
2018-07-04T08:49:53.453Z,3.50
2018-07-04T08:52:32.838Z,2.90
2018-07-04T08:55:11.974Z,3.07
2018-07-04T08:57:51.178Z,3.37
2018-07-04T09:00:30.261Z,3.23
2018-07-04T09:03:09.468Z,3.30
2018-07-04T09:05:48.764Z,3.03
2018-07-04T09:08:28.216Z,3.27
2018-07-04T09:11:07.440Z,3.40
2018-07-04T09:13:46.857Z,3.17
2018-07-04T09:16:25.962Z,2.83
2018-07-04T09:19:05.221Z,3.50
2018-07-04T09:21:44.429Z,3.00
2018-07-04T09:24:23.717Z,3.40
2018-07-04T09:27:02.861Z,3.40
2018-07-04T09:29:42.187Z,2.73
2018-07-04T09:32:15.548Z,3.00
2018-07-04T09:34:54.913Z,3.03
2018-07-04T09:37:34.009Z,3.17
2018-07-04T09:40:13.372Z,3.20
2018-07-04T09:42:52.610Z,3.93
2018-07-04T09:45:31.993Z,3.60
2018-07-04T09:48:11.081Z,4.10
2018-07-04T09:50:50.380Z,3.50
2018-07-04T09:53:29.569Z,4.17
2018-07-04T09:56:08.920Z,4.17
2018-07-04T09:58:48.212Z,3.60
2018-07-04T10:01:27.485Z,3.90
2018-07-04T10:04:06.785Z,3.40
2018-07-04T10:06:46.177Z,4.03
2018-07-04T10:09:25.517Z,3.40
2018-07-04T10:12:04.689Z,3.23
2018-07-04T10:14:43.896Z,3.53
2018-07-04T10:17:23.241Z,3.80
2018-07-04T10:20:02.352Z,3.73
2018-07-04T10:22:41.609Z,3.23
2018-07-04T10:25:20.953Z,3.37
2018-07-04T10:28:01.081Z,3.60
2018-07-04T10:30:41.041Z,3.00
2018-07-04T10:33:20.782Z,3.83
2018-07-04T10:36:00.117Z,3.70
2018-07-04T10:38:39.701Z,3.50
2018-07-04T10:41:19.246Z,3.67
2018-07-04T10:43:58.557Z,3.93
2018-07-04T10:46:38.067Z,3.57
2018-07-04T10:49:11.847Z,4.13
2018-07-04T10:51:51.244Z,4.57
2018-07-04T10:54:30.813Z,3.70
2018-07-04T10:57:10.213Z,4.13
2018-07-04T10:59:49.441Z,3.40
2018-07-04T11:02:28.516Z,3.60
2018-07-04T11:05:07.940Z,3.10
2018-07-04T11:07:47.299Z,3.90
2018-07-04T11:10:26.549Z,3.43
2018-07-04T11:13:05.725Z,3.33
2018-07-04T11:15:44.953Z,2.87
2018-07-04T11:18:24.133Z,3.37
2018-07-04T11:21:03.485Z,3.53
2018-07-04T11:23:42.757Z,3.47
2018-07-04T11:26:22.049Z,3.37
2018-07-04T11:29:01.389Z,3.50
2018-07-04T11:31:41.204Z,3.20
2018-07-04T11:34:20.406Z,3.37
2018-07-04T11:36:59.583Z,2.97
2018-07-04T11:39:39.057Z,2.80
2018-07-04T11:42:18.493Z,3.30
2018-07-04T11:44:57.744Z,2.63
2018-07-04T11:47:24.585Z,2.80
2018-07-04T11:49:51.432Z,3.07
2018-07-04T11:52:18.253Z,2.60
2018-07-04T11:54:45.097Z,2.80
2018-07-04T11:57:11.949Z,2.93
2018-07-04T11:59:38.784Z,2.60
2018-07-04T12:02:05.629Z,2.60
2018-07-04T12:04:44.920Z,2.53
2018-07-04T12:07:11.769Z,2.50
2018-07-04T12:09:39.719Z,2.53
2018-07-04T12:12:06.705Z,2.50
2018-07-04T12:14:33.638Z,2.30
2018-07-04T12:17:00.609Z,2.47
2018-07-04T12:19:27.710Z,3.67
2018-07-04T12:21:54.517Z,2.70
2018-07-04T12:24:21.389Z,2.20
2018-07-04T12:26:48.276Z,3.00
2018-07-04T12:29:15.154Z,2.63
2018-07-04T12:31:42.090Z,2.60
2018-07-04T12:34:08.909Z,2.70
2018-07-04T12:36:35.762Z,3.03
2018-07-04T12:39:02.926Z,3.87
2018-07-04T12:41:29.855Z,3.60
2018-07-04T12:43:56.677Z,3.57
2018-07-04T12:46:23.497Z,4.10
2018-07-04T12:48:56.218Z,3.10
2018-07-04T12:51:23.059Z,3.73
2018-07-04T12:53:50.032Z,3.37
2018-07-04T12:56:29.337Z,2.70
2018-07-04T12:59:08.632Z,2.67
2018-07-04T13:01:47.824Z,2.80
2018-07-04T13:04:27.151Z,2.80
2018-07-04T13:07:06.456Z,2.37
2018-07-04T13:09:45.596Z,2.30
2018-07-04T13:12:24.724Z,2.40
2018-07-04T13:15:04.016Z,3.13
2018-07-04T13:17:43.214Z,3.30
2018-07-04T13:20:22.401Z,2.97
2018-07-04T13:23:01.593Z,3.70
2018-07-04T13:25:41.008Z,3.30
2018-07-04T13:28:20.156Z,3.50
2018-07-04T13:30:59.403Z,2.83
2018-07-04T13:33:38.812Z,3.40
2018-07-04T13:36:18.209Z,3.07
2018-07-04T13:38:57.568Z,3.20
2018-07-04T13:41:37.005Z,3.10
2018-07-04T13:44:16.481Z,2.97
2018-07-04T13:46:55.797Z,3.10
2018-07-04T13:49:34.989Z,3.30
2018-07-04T13:52:14.108Z,3.27
2018-07-04T13:54:53.269Z,3.23
2018-07-04T13:57:32.465Z,3.30
2018-07-04T14:00:12.125Z,3.47
2018-07-04T14:02:51.658Z,3.10
2018-07-04T14:05:30.761Z,3.53
2018-07-04T14:08:09.981Z,3.90
2018-07-04T14:10:49.316Z,3.27
2018-07-04T14:13:28.578Z,3.10
2018-07-04T14:16:07.816Z,3.70
2018-07-04T14:18:47.006Z,4.83
2018-07-04T14:21:28.038Z,3.30
2018-07-04T14:24:07.590Z,4.20
2018-07-04T14:26:46.747Z,4.00
2018-07-04T14:29:26.060Z,3.77
2018-07-04T14:32:05.619Z,3.80
2018-07-04T14:34:44.986Z,3.87
2018-07-04T14:37:18.281Z,3.73
2018-07-04T14:39:57.504Z,3.30
2018-07-04T14:42:36.939Z,3.30
2018-07-04T14:45:16.356Z,3.00
2018-07-04T14:47:55.576Z,2.80
2018-07-04T14:50:34.854Z,2.90
2018-07-04T14:53:14.233Z,2.60
2018-07-04T14:55:53.578Z,3.33
2018-07-04T14:58:32.649Z,2.37
2018-07-04T15:01:11.976Z,2.17
2018-07-04T15:03:51.209Z,2.30
2018-07-04T15:06:30.388Z,2.27
2018-07-04T15:09:09.601Z,2.13
2018-07-04T15:11:48.973Z,2.50
2018-07-04T15:14:28.323Z,2.80
2018-07-04T15:17:07.408Z,2.50
2018-07-04T15:19:46.821Z,2.97
2018-07-04T15:22:25.968Z,2.53
2018-07-04T15:25:05.270Z,2.73
2018-07-04T15:27:44.527Z,2.70
2018-07-04T15:30:23.713Z,2.60
2018-07-04T15:33:02.953Z,2.40
2018-07-04T15:35:42.145Z,3.33
2018-07-04T15:38:21.642Z,2.47
2018-07-04T15:41:00.851Z,2.10
2018-07-04T15:43:40.172Z,1.80
2018-07-04T15:46:19.482Z,2.10
2018-07-04T15:48:58.899Z,2.60
2018-07-04T15:51:38.282Z,2.03
2018-07-04T15:54:17.616Z,2.30
2018-07-04T15:56:56.829Z,2.63
2018-07-04T15:59:36.104Z,2.10
2018-07-04T16:02:15.349Z,2.10
2018-07-04T16:04:54.532Z,1.80
2018-07-04T16:07:28.050Z,2.10
2018-07-04T16:10:07.347Z,1.80
2018-07-04T16:12:46.593Z,1.90
2018-07-04T16:15:25.813Z,2.13
2018-07-04T16:18:05.057Z,1.80
2018-07-04T16:20:44.261Z,2.30
2018-07-04T16:23:23.407Z,1.80
2018-07-04T16:26:02.725Z,2.77
2018-07-04T16:28:42.017Z,2.70
2018-07-04T16:31:21.428Z,5.43
2018-07-04T16:34:00.562Z,2.57
2018-07-04T16:36:40.034Z,2.40
2018-07-04T16:39:19.236Z,2.73
2018-07-04T16:41:58.581Z,2.50
2018-07-04T16:44:37.875Z,4.47
2018-07-04T16:47:17.096Z,2.80
2018-07-04T16:49:56.185Z,2.73
2018-07-04T16:52:35.384Z,3.33
2018-07-04T16:55:14.760Z,3.40
2018-07-04T16:57:54.113Z,2.73
2018-07-04T17:00:33.805Z,3.17
2018-07-04T17:03:13.092Z,2.30
2018-07-04T17:05:52.327Z,3.30
2018-07-04T17:08:31.585Z,2.37
2018-07-04T17:11:10.699Z,2.70
2018-07-04T17:13:49.901Z,2.70
2018-07-04T17:16:29.244Z,2.40
2018-07-04T17:19:08.596Z,2.97
2018-07-04T17:21:47.787Z,2.90
2018-07-04T17:24:26.942Z,2.63
2018-07-04T17:27:06.068Z,2.97
2018-07-04T17:29:45.320Z,2.90
2018-07-04T17:32:24.526Z,2.20
2018-07-04T17:35:03.977Z,2.33
2018-07-04T17:37:43.410Z,2.30
2018-07-04T17:40:22.673Z,1.90
2018-07-04T17:43:01.941Z,1.93
2018-07-04T17:45:41.182Z,2.13
2018-07-04T17:48:20.402Z,1.93
2018-07-04T17:50:59.706Z,1.60
2018-07-04T17:53:39.112Z,1.97
2018-07-04T17:56:18.393Z,1.97
2018-07-04T17:58:57.797Z,2.07
2018-07-04T18:01:37.160Z,2.33
2018-07-04T18:04:16.765Z,1.67
2018-07-04T18:06:56.179Z,2.00
2018-07-04T18:09:35.613Z,1.77
2018-07-04T18:12:14.790Z,1.80
2018-07-04T18:14:54.015Z,2.07
2018-07-04T18:17:33.374Z,2.07
2018-07-04T18:20:12.619Z,2.03
2018-07-04T18:22:51.825Z,1.90
2018-07-04T18:25:31.056Z,2.13
2018-07-04T18:28:10.261Z,2.07
2018-07-04T18:30:49.638Z,1.80
2018-07-04T18:33:29.076Z,2.20
2018-07-04T18:36:08.390Z,2.27
2018-07-04T18:38:47.656Z,2.80
2018-07-04T18:41:27.066Z,2.47
2018-07-04T18:44:06.246Z,2.07
2018-07-04T18:46:45.588Z,2.27
2018-07-04T18:49:25.687Z,2.27
2018-07-04T18:52:05.248Z,2.60
2018-07-04T18:54:44.465Z,1.80
2018-07-04T18:57:24.537Z,2.30
2018-07-04T19:00:03.919Z,2.27
2018-07-04T19:02:43.356Z,2.87
2018-07-04T19:05:22.602Z,3.63
2018-07-04T19:08:01.909Z,2.70
2018-07-04T19:10:41.169Z,3.20
2018-07-04T19:13:20.606Z,2.40
2018-07-04T19:16:00.399Z,2.27
2018-07-04T19:18:42.690Z,3.30
2018-07-04T19:21:24.985Z,3.40
2018-07-04T19:24:13.485Z,2.63
2018-07-04T19:26:54.883Z,2.30
2018-07-04T19:29:34.168Z,2.43
2018-07-04T19:32:13.572Z,2.60
2018-07-04T19:34:52.876Z,2.30
2018-07-04T19:37:32.179Z,2.13
2018-07-04T19:40:11.360Z,3.20
2018-07-04T19:42:50.586Z,3.07
2018-07-04T19:45:29.897Z,2.90
2018-07-04T19:48:09.293Z,2.77
2018-07-04T19:50:48.535Z,2.67
2018-07-04T19:53:27.985Z,2.13
2018-07-04T19:56:07.357Z,1.80
2018-07-04T19:58:46.549Z,2.37
2018-07-04T20:01:25.850Z,2.10
2018-07-04T20:04:05.288Z,2.67
2018-07-04T20:06:45.513Z,2.77
2018-07-04T20:09:25.061Z,2.43
2018-07-04T20:12:04.537Z,2.70
2018-07-04T20:14:43.924Z,2.90
2018-07-04T20:17:23.215Z,3.23
2018-07-04T20:20:02.598Z,3.67
2018-07-04T20:22:41.753Z,3.43
2018-07-04T20:25:21.092Z,3.63
2018-07-04T20:28:00.418Z,3.40
2018-07-04T20:30:39.869Z,3.23
2018-07-04T20:33:19.460Z,3.37
2018-07-04T20:35:52.966Z,3.70
2018-07-04T20:38:32.249Z,4.20
2018-07-04T20:41:11.473Z,3.30
2018-07-04T20:43:51.246Z,3.00
2018-07-04T20:46:30.461Z,3.30
2018-07-04T20:49:09.967Z,3.90
2018-07-04T20:51:49.334Z,3.73
2018-07-04T20:54:28.554Z,3.13
2018-07-04T20:57:07.886Z,3.80
2018-07-04T20:59:47.573Z,3.60
2018-07-04T21:02:27.015Z,3.90
2018-07-04T21:05:06.222Z,3.57
2018-07-04T21:07:45.460Z,3.20
2018-07-04T21:10:24.748Z,3.47
2018-07-04T21:13:04.009Z,3.30
2018-07-04T21:15:43.269Z,3.43
2018-07-04T21:18:22.601Z,3.43
2018-07-04T21:21:01.757Z,3.60
2018-07-04T21:23:41.226Z,2.97
2018-07-04T21:26:20.342Z,3.40
2018-07-04T21:28:59.756Z,3.60
2018-07-04T21:31:39.016Z,3.77
2018-07-04T21:34:18.292Z,4.20
2018-07-04T21:36:57.509Z,3.40
2018-07-04T21:39:36.929Z,3.60
2018-07-04T21:42:16.217Z,3.70
2018-07-04T21:44:55.505Z,3.50
2018-07-04T21:47:34.701Z,3.40
2018-07-04T21:50:14.161Z,3.67
2018-07-04T21:52:53.401Z,4.20
2018-07-04T21:55:32.541Z,4.10
2018-07-04T21:58:11.908Z,4.13
2018-07-04T22:00:51.181Z,4.30
2018-07-04T22:03:30.674Z,4.77
2018-07-04T22:06:09.800Z,4.63
2018-07-04T22:08:48.993Z,4.30
2018-07-04T22:11:28.167Z,4.23
2018-07-04T22:14:07.485Z,3.63
2018-07-04T22:16:46.728Z,4.37
2018-07-04T22:19:25.953Z,3.87
2018-07-04T22:22:05.024Z,4.23
2018-07-04T22:24:44.253Z,4.97
2018-07-04T22:27:23.403Z,4.90
2018-07-04T22:30:02.605Z,4.37
2018-07-04T22:32:41.879Z,4.00
2018-07-04T22:35:21.017Z,4.10
2018-07-04T22:38:00.313Z,4.00
2018-07-04T22:40:39.656Z,3.90
2018-07-04T22:43:19.004Z,4.30
2018-07-04T22:45:58.383Z,4.60
2018-07-04T22:48:37.645Z,4.20
2018-07-04T22:51:16.904Z,4.27
2018-07-04T22:53:56.329Z,4.20
2018-07-04T22:56:35.625Z,4.70
2018-07-04T22:59:14.840Z,5.20
2018-07-04T23:01:54.021Z,4.13
2018-07-04T23:04:33.288Z,4.30
2018-07-04T23:07:12.505Z,4.47
2018-07-04T23:09:51.705Z,4.67
2018-07-04T23:12:30.960Z,4.30
2018-07-04T23:15:10.288Z,4.27
2018-07-04T23:17:49.654Z,3.83
2018-07-04T23:20:28.914Z,4.27
2018-07-04T23:23:08.404Z,3.70
2018-07-04T23:25:47.700Z,4.40
2018-07-04T23:28:26.839Z,4.00
2018-07-04T23:31:06.204Z,4.10
2018-07-04T23:33:45.571Z,4.40
2018-07-04T23:36:24.797Z,4.33
2018-07-04T23:39:04.296Z,5.17
2018-07-04T23:41:43.573Z,4.90
2018-07-04T23:44:23.036Z,5.17
2018-07-04T23:47:02.377Z,4.80
2018-07-04T23:49:41.587Z,5.17
2018-07-04T23:52:20.924Z,4.83
2018-07-04T23:55:00.400Z,5.60
2018-07-04T23:57:39.836Z,5.40
